Terminal Aerodrome Forecast
Issued by NWS Charleston, SC

Home | Current Version | Previous Version | Text Only | Print | Product List | Glossary On
Versions: 1 2 3 4 5 6 7 8 9 10 11 12 13 14 15 16 17 18 19 20 21 22 23 24 25 26 27 28 29 30 31 32 33 34
000
FTUS42 KCHS 021736
TAFSAV
TAF
KSAV 021736Z 0218/0318 14006KT P6SM VCTS SCT030CB BKN050
      TEMPO 0218/0222 5SM -TSRA BKN030CB
     FM030000 VRB03KT P6SM SCT025 BKN100
     FM031400 04005KT P6SM SCT030=

USA.gov is the U.S. government's official web portal to all federal, state and local government web resources and services.